Observations for AMSTERDAM SCHIPHOL, Netherlands (EHAM)

EHAM 140825Z 30013KT 9999 FEW020 19/15 Q1012 NOSIG  
EHAM 140755Z 30014KT 9999 FEW020 20/15 Q1012 NOSIG  
EHAM 140725Z 30014KT 9999 FEW020 19/15 Q1012 NOSIG  
EHAM 140655Z 30011KT 9999 FEW018 18/15 Q1011 NOSIG  
EHAM 140625Z 29012KT 9999 FEW018 SCT030 18/15 Q1011 NOSIG   
EHAM 140555Z 29013KT 9999 FEW018 18/15 Q1011 NOSIG  
EHAM 140525Z 29011KT 9999 FEW018 17/15 Q1010 NOSIG  
EHAM 140455Z 29013KT 9999 FEW018 17/15 Q1010 TEMPO BKN018   
EHAM 140425Z 29012KT 9999 FEW021 17/15 Q1010 TEMPO BKN017   
EHAM 140355Z 29012KT 9999 FEW021 17/15 Q1009 TEMPO BKN019   
EHAM 140325Z 28010KT 9999 FEW014 SCT027 17/16 Q1009 TEMPO BKN014
EHAM 140255Z 28015KT 9999 FEW007 BKN023 17/16 Q1009 TEMPO BKN014
EHAM 140225Z 30014KT 270V340 8000 -DZ FEW007 SCT014 BKN023 17/16 Q1009 BECMG 9999 NSW TEMPO BKN014  
EHAM 140155Z 29013KT 270V330 9999 -RADZ SCT014 BKN032 18/16 Q1008 TEMPO BKN014  
EHAM 140125Z 27013KT 9999 SCT014 BKN032 18/17 Q1008 TEMPO BKN014
EHAM 140055Z 26010KT 9999 FEW016 BKN025 19/16 Q1008 TEMPO 7000 -RA  
EHAM 140025Z 26009KT 9999 FEW025 SCT035 18/16 Q1008 TEMPO 7000 -RA  
EHAM 132355Z 26009KT 9999 FEW025 SCT035 18/16 Q1008 TEMPO 7000 -RA  
EHAM 132325Z 27009KT 9999 FEW025TCU 18/16 Q1008 TEMPO 7000 -RA  
EHAM 132255Z 27008KT 9999 FEW025TCU 18/16 Q1008 TEMPO 7000 -RA  
EHAM 132225Z 27008KT 9999 FEW020 18/16 Q1007 NOSIG  
EHAM 132155Z 26009KT 230V290 9999 FEW022CB 18/16 Q1007 NOSIG
EHAM 132125Z 27009KT 9999 VCSH FEW013 FEW022CB 18/16 Q1007 NOSIG
EHAM 132055Z 27009KT 9999 FEW022 BKN025 18/16 Q1007 NOSIG   
EHAM 132025Z 25010KT 220V280 9999 -SHRA FEW016 BKN035 19/16 Q1007 NOSIG 
EHAM 131955Z 24008KT 9999 FEW016 BKN033 19/16 Q1006 NOSIG   
EHAM 131925Z 25008KT 220V280 9999 FEW015 BKN032 19/16 Q1006 NOSIG   
EHAM 131855Z 26010KT 9999 FEW016 SCT032 19/15 Q1006 BECMG BKN018
EHAM 131825Z 27012KT 9999 FEW015 19/15 Q1006 NOSIG  
EHAM 131755Z 27013KT 9999 FEW018 20/15 Q1006 NOSIG  
EHAM 131725Z 26014KT 9999 FEW017 20/16 Q1006 NOSIG  
EHAM 131655Z 27012KT 9999 FEW018TCU 20/16 Q1006 NOSIG   
EHAM 131625Z 27012KT 9999 FEW012 FEW017CB 20/17 Q1005 NOSIG 
EHAM 131555Z 27013KT 240V300 9999 VCSH FEW012 FEW017CB FEW020TCU 19/17 Q1005 NOSIG  
EHAM 131525Z 28009KT 9999 VCSH FEW012 FEW017TCU 20/16 Q1005 TEMPO 6000 SHRA FEW018CB
EHAM 131455Z 27008KT 240V310 9999 VCSH FEW012 FEW018TCU SCT045 20/17 Q1005 TEMPO 6000 SHRA FEW018CB 
EHAM 131425Z 28009KT 9999 VCSH FEW010 FEW018TCU 20/17 Q1005 NOSIG   
EHAM 131355Z 29005KT 240V320 9999 -SHRA FEW009 FEW018CB 19/17 Q1005 NOSIG   
EHAM 131325Z 27005KT 240V320 9999 -SHRA FEW007 FEW018CB 19/17 Q1005 NOSIG   
EHAM 131255Z 27006KT 240V310 9999 -SHRA FEW010 FEW018CB 18/17 Q1005 TEMPO 6000 SHRA 
EHAM 131225Z 28005KT 240V310 9999 -SHRA FEW010 SCT018CB 18/17 Q1005 TEMPO 6000 SHRA 
EHAM 131155Z 28008KT 240V320 9999 4000SE -SHRA FEW010 SCT018CB 19/17 Q1005 TEMPO 3500 TSRA  
EHAM 131125Z 27008KT 230V310 9999 -SHRA FEW008 FEW018CB SCT045 19/17 Q1005 TEMPO 5000 TSRA  
EHAM 131055Z 25009KT 200V300 9999 -SHRA FEW013 FEW018CB SCT032 19/17 Q1005 RESHRA TEMPO 6000 SHRA   
EHAM 131025Z 24006KT 200V280 9999 -SHRA FEW015 FEW022CB BKN035 19/16 Q1005 TEMPO 6000 SHRA  
EHAM 130955Z 25011KT 220V280 9999 -SHRA FEW015 FEW020CB SCT028 20/16 Q1005 TEMPO 6000 SHRA  
EHAM 130925Z 25014KT 9999 FEW015 SCT027 21/15 Q1005 TEMPO 6000 SHRA SCT020CB
EHAM 130855Z 24010KT 210V270 9999 FEW018 22/16 Q1004 TEMPO 6000 SHRA FEW020CB   
EHAM 130825Z 23012KT 200V260 9999 FEW022 22/15 Q1004 TEMPO 7000 -SHRA FEW060CB  
EHAM 130755Z 21011KT 170V240 9999 FEW022 21/16 Q1004 NOSIG